createdAt,value
2023-10-30T00:01:21.045Z,50.56
2023-10-30T00:03:49.176Z,50.31
2023-10-30T00:06:16.889Z,50.48
2023-10-30T00:08:44.704Z,50.46
2023-10-30T00:11:12.371Z,50.52
2023-10-30T00:13:39.766Z,50.32
2023-10-30T00:16:07.300Z,50.45
2023-10-30T00:18:35.924Z,50.64
2023-10-30T00:21:03.521Z,50.36
2023-10-30T00:23:30.914Z,50.45
2023-10-30T00:25:58.850Z,50.37
2023-10-30T00:28:28.638Z,50.30
2023-10-30T00:30:55.994Z,50.55
2023-10-30T00:33:23.883Z,50.42
2023-10-30T00:35:51.325Z,50.28
2023-10-30T00:38:18.770Z,50.43
2023-10-30T00:40:46.583Z,50.58
2023-10-30T00:43:14.202Z,50.51
2023-10-30T00:45:41.967Z,50.60
2023-10-30T00:48:09.944Z,50.50
2023-10-30T00:50:37.422Z,50.35
2023-10-30T00:53:05.116Z,50.10
2023-10-30T00:55:37.109Z,50.25
2023-10-30T00:58:08.500Z,50.27
2023-10-30T01:00:36.350Z,50.37
2023-10-30T01:03:03.991Z,50.10
2023-10-30T01:05:31.482Z,49.92
2023-10-30T01:07:59.148Z,50.15
2023-10-30T01:10:26.545Z,50.15
2023-10-30T01:12:53.987Z,50.14
2023-10-30T01:15:22.849Z,49.86
2023-10-30T01:17:50.246Z,49.84
2023-10-30T01:20:17.764Z,49.77
2023-10-30T01:22:45.406Z,49.69
2023-10-30T01:25:13.021Z,49.75
2023-10-30T01:27:40.547Z,49.75
2023-10-30T01:30:08.642Z,49.82
2023-10-30T01:32:36.106Z,49.61
2023-10-30T01:35:03.693Z,49.82
2023-10-30T01:37:32.052Z,49.59
2023-10-30T01:39:59.466Z,49.74
2023-10-30T01:42:26.864Z,49.77
2023-10-30T01:44:56.361Z,49.54
2023-10-30T01:47:24.794Z,49.90
2023-10-30T01:49:56.676Z,49.87
2023-10-30T01:52:24.351Z,50.01
2023-10-30T01:54:52.998Z,49.85
2023-10-30T01:57:23.274Z,49.99
2023-10-30T01:59:51.952Z,49.89
2023-10-30T02:02:20.348Z,50.08
2023-10-30T02:04:48.778Z,50.15
2023-10-30T02:07:18.685Z,49.96
2023-10-30T02:09:48.899Z,50.18
2023-10-30T02:12:16.646Z,50.04
2023-10-30T02:14:44.405Z,50.06
2023-10-30T02:17:12.019Z,50.04
2023-10-30T02:19:39.462Z,50.11
2023-10-30T02:22:07.197Z,50.32
2023-10-30T02:24:34.937Z,50.32
2023-10-30T02:27:02.947Z,50.41
2023-10-30T02:29:30.582Z,50.40
2023-10-30T02:31:57.967Z,50.49
2023-10-30T02:34:25.496Z,50.55
2023-10-30T02:36:55.282Z,50.51
2023-10-30T02:39:22.785Z,50.61
2023-10-30T02:41:50.273Z,50.71
2023-10-30T02:44:18.932Z,50.75
2023-10-30T02:46:46.309Z,50.61
2023-10-30T02:49:13.723Z,50.92
2023-10-30T02:51:41.433Z,50.82
2023-10-30T02:54:08.967Z,50.82
2023-10-30T02:56:36.365Z,50.70
2023-10-30T02:59:04.043Z,50.63
2023-10-30T03:01:31.501Z,50.69
2023-10-30T03:03:59.000Z,50.52
2023-10-30T03:06:26.884Z,50.65
2023-10-30T03:08:54.274Z,50.63
2023-10-30T03:11:21.668Z,50.56
2023-10-30T03:13:49.323Z,50.56
2023-10-30T03:16:19.094Z,50.66
2023-10-30T03:18:46.737Z,50.75
2023-10-30T03:21:14.556Z,50.85
2023-10-30T03:23:42.147Z,50.56
2023-10-30T03:26:10.412Z,50.77
2023-10-30T03:28:38.054Z,50.87
2023-10-30T03:31:07.037Z,50.85
2023-10-30T03:33:34.521Z,50.78
2023-10-30T03:36:03.230Z,50.73
2023-10-30T03:38:31.055Z,50.64
2023-10-30T03:40:58.663Z,50.43
2023-10-30T03:43:26.452Z,50.63
2023-10-30T03:45:54.136Z,50.44
2023-10-30T03:48:21.595Z,50.55
2023-10-30T03:50:50.719Z,50.35
2023-10-30T03:53:18.200Z,50.26
2023-10-30T03:55:45.560Z,50.35
2023-10-30T03:58:13.509Z,50.34
2023-10-30T04:00:40.934Z,50.39
2023-10-30T04:03:09.384Z,50.22
2023-10-30T04:05:36.862Z,50.21
2023-10-30T04:08:04.488Z,50.50
2023-10-30T04:10:32.272Z,50.01
2023-10-30T04:12:59.679Z,50.07
2023-10-30T04:15:27.065Z,50.08
2023-10-30T04:17:57.216Z,49.96
2023-10-30T04:20:24.763Z,49.91
2023-10-30T04:22:52.151Z,49.61
2023-10-30T04:25:20.324Z,49.53
2023-10-30T04:27:47.838Z,49.65
2023-10-30T04:30:15.450Z,49.65
2023-10-30T04:32:43.244Z,49.31
2023-10-30T04:35:10.643Z,49.37
2023-10-30T04:37:38.047Z,49.20
2023-10-30T04:40:06.569Z,49.10
2023-10-30T04:42:34.050Z,49.06
2023-10-30T04:45:01.463Z,49.19
2023-10-30T04:47:29.272Z,48.90
2023-10-30T04:49:56.698Z,48.91
2023-10-30T04:52:25.870Z,48.89
2023-10-30T04:54:53.601Z,48.58
2023-10-30T04:57:21.012Z,48.87
2023-10-30T04:59:48.640Z,48.58
2023-10-30T05:02:16.470Z,48.82
2023-10-30T05:04:43.865Z,48.98
2023-10-30T05:07:11.550Z,48.77
2023-10-30T05:09:39.240Z,48.57
2023-10-30T05:12:06.743Z,48.60
2023-10-30T05:14:34.200Z,48.67
2023-10-30T05:17:01.852Z,48.73
2023-10-30T05:19:30.358Z,48.78
2023-10-30T05:21:57.784Z,48.66
2023-10-30T05:24:25.788Z,48.51
2023-10-30T05:26:53.750Z,48.47
2023-10-30T05:29:21.179Z,48.50
2023-10-30T05:31:49.203Z,48.59
2023-10-30T05:34:16.678Z,48.83
2023-10-30T05:36:44.330Z,48.96
2023-10-30T05:39:12.041Z,48.65
2023-10-30T05:41:39.489Z,48.50
2023-10-30T05:44:06.905Z,48.45
2023-10-30T05:46:34.800Z,48.78
2023-10-30T05:49:02.222Z,48.59
2023-10-30T05:51:29.652Z,48.63
2023-10-30T05:53:57.343Z,48.73
2023-10-30T05:56:25.064Z,48.85
2023-10-30T05:58:52.418Z,48.96
2023-10-30T06:01:20.104Z,48.68
2023-10-30T06:03:47.848Z,48.77
2023-10-30T06:06:15.358Z,48.83
2023-10-30T06:08:42.796Z,48.78
2023-10-30T06:11:11.660Z,48.65
2023-10-30T06:13:39.043Z,48.33
2023-10-30T06:16:06.581Z,48.27
2023-10-30T06:18:34.273Z,48.09
2023-10-30T06:21:03.027Z,48.21
2023-10-30T06:23:30.481Z,48.22
2023-10-30T06:25:58.170Z,47.80
2023-10-30T06:28:25.610Z,47.71
2023-10-30T06:30:53.310Z,47.41
2023-10-30T06:33:21.076Z,47.52
2023-10-30T06:35:56.703Z,47.43
2023-10-30T06:38:24.374Z,47.68
2023-10-30T06:40:51.818Z,47.29
2023-10-30T06:43:19.188Z,47.54
2023-10-30T06:45:46.900Z,47.49
2023-10-30T06:48:14.305Z,47.28
2023-10-30T06:50:41.708Z,46.95
2023-10-30T06:53:09.391Z,46.62
2023-10-30T06:55:40.174Z,46.60
2023-10-30T06:58:07.560Z,46.70
2023-10-30T07:00:35.311Z,46.43
2023-10-30T07:03:02.837Z,46.40
2023-10-30T07:05:30.367Z,46.03
2023-10-30T07:07:58.075Z,46.07
2023-10-30T07:10:25.526Z,46.18
2023-10-30T07:12:52.930Z,45.68
2023-10-30T07:15:21.675Z,45.92
2023-10-30T07:17:49.355Z,45.28
2023-10-30T07:20:16.794Z,45.08
2023-10-30T07:22:44.480Z,45.15
2023-10-30T07:25:12.372Z,45.75
2023-10-30T07:27:39.804Z,44.73
2023-10-30T07:30:09.529Z,44.84
2023-10-30T07:32:36.965Z,44.23
2023-10-30T07:35:06.178Z,44.27
2023-10-30T07:37:37.115Z,43.89
2023-10-30T07:40:05.133Z,43.62
2023-10-30T07:42:33.091Z,45.21
2023-10-30T07:45:00.937Z,44.02
2023-10-30T07:47:42.816Z,43.48
2023-10-30T07:50:12.208Z,43.25
2023-10-30T07:52:42.811Z,43.44
2023-10-30T07:55:11.384Z,43.33
2023-10-30T07:57:39.078Z,44.29
2023-10-30T08:00:08.613Z,43.88
2023-10-30T08:02:40.561Z,43.59
2023-10-30T08:05:08.762Z,42.50
2023-10-30T08:07:37.234Z,42.12
2023-10-30T08:10:05.112Z,42.13
2023-10-30T08:12:32.903Z,42.62
2023-10-30T08:15:01.071Z,42.96
2023-10-30T08:17:28.837Z,42.87
2023-10-30T08:19:56.512Z,41.54
2023-10-30T08:22:23.910Z,42.00
2023-10-30T08:24:52.506Z,42.08
2023-10-30T08:27:20.268Z,42.31
2023-10-30T08:29:47.892Z,42.46
2023-10-30T08:32:15.450Z,42.48
2023-10-30T08:34:43.244Z,42.71
2023-10-30T08:37:10.668Z,42.41
2023-10-30T08:39:38.431Z,42.50
2023-10-30T08:42:06.263Z,42.06
2023-10-30T08:44:36.404Z,42.79
2023-10-30T08:47:03.786Z,42.87
2023-10-30T08:49:33.417Z,42.58
2023-10-30T08:52:04.499Z,43.13
2023-10-30T08:54:32.780Z,42.55
2023-10-30T08:59:30.532Z,42.71
2023-10-30T09:01:59.196Z,42.42
2023-10-30T09:04:27.024Z,43.17
2023-10-30T09:06:54.541Z,42.24
2023-10-30T09:09:22.296Z,41.39
2023-10-30T09:11:50.258Z,41.29
2023-10-30T09:14:17.672Z,41.77
2023-10-30T09:16:45.560Z,42.07
2023-10-30T09:19:12.953Z,41.48
2023-10-30T09:21:40.673Z,41.54
2023-10-30T09:24:08.868Z,41.68
2023-10-30T09:26:36.552Z,41.67
2023-10-30T09:29:04.617Z,42.27
2023-10-30T09:31:34.238Z,42.14
2023-10-30T09:34:01.854Z,41.89
2023-10-30T09:36:29.233Z,42.26
2023-10-30T09:38:57.035Z,40.72
2023-10-30T09:41:27.969Z,41.34
2023-10-30T09:43:55.570Z,41.10
2023-10-30T09:46:29.836Z,41.03
2023-10-30T09:48:59.167Z,41.13
2023-10-30T09:51:27.612Z,41.39
2023-10-30T09:53:56.051Z,40.81
2023-10-30T09:56:23.707Z,41.32
2023-10-30T09:58:52.441Z,40.94
2023-10-30T10:01:20.778Z,42.12
2023-10-30T10:03:49.228Z,41.43
2023-10-30T10:06:17.898Z,41.65
2023-10-30T10:08:45.534Z,41.58
2023-10-30T10:11:13.280Z,41.95
2023-10-30T10:13:57.997Z,41.61
2023-10-30T10:16:32.315Z,41.83
2023-10-30T10:19:00.156Z,42.13
2023-10-30T10:21:27.993Z,42.42
2023-10-30T10:23:55.882Z,43.14
2023-10-30T10:26:30.809Z,42.84
2023-10-30T10:28:59.754Z,41.86
2023-10-30T10:31:27.903Z,41.28
2023-10-30T10:33:57.742Z,41.01
2023-10-30T10:36:31.654Z,41.22
2023-10-30T10:39:00.081Z,42.01
2023-10-30T10:41:30.398Z,41.66
2023-10-30T10:44:00.242Z,41.61
2023-10-30T10:46:27.995Z,42.25
2023-10-30T10:48:56.063Z,42.01
2023-10-30T10:51:33.869Z,42.33
2023-10-30T10:54:08.251Z,41.62
2023-10-30T10:56:38.351Z,41.19
2023-10-30T10:59:09.593Z,41.88
2023-10-30T11:01:39.605Z,41.55
2023-10-30T11:04:09.572Z,41.58
2023-10-30T11:06:38.938Z,41.97
2023-10-30T11:09:15.943Z,41.91
2023-10-30T11:11:52.635Z,41.48
2023-10-30T11:14:31.425Z,41.83
2023-10-30T11:17:03.298Z,41.51
2023-10-30T11:19:32.515Z,41.06
2023-10-30T11:22:03.072Z,41.26
2023-10-30T11:24:42.017Z,40.72
2023-10-30T11:27:27.983Z,41.28
2023-10-30T11:29:57.469Z,41.12
2023-10-30T11:32:26.295Z,41.55
2023-10-30T11:34:53.707Z,42.63
2023-10-30T11:37:24.478Z,42.36
2023-10-30T11:39:54.868Z,41.40
2023-10-30T11:42:25.633Z,41.57
2023-10-30T11:44:54.374Z,41.20
2023-10-30T11:47:25.342Z,41.47
2023-10-30T11:49:56.789Z,41.98
2023-10-30T11:52:24.360Z,41.68
2023-10-30T11:54:52.151Z,40.89
2023-10-30T11:57:23.799Z,41.73
2023-10-30T11:59:51.452Z,41.51
2023-10-30T12:02:19.076Z,40.83
2023-10-30T12:04:46.804Z,40.74
2023-10-30T12:07:17.085Z,41.06
2023-10-30T12:09:44.490Z,41.28
2023-10-30T12:12:12.323Z,41.62
2023-10-30T12:14:39.777Z,41.13
2023-10-30T12:17:07.744Z,40.90
2023-10-30T12:19:36.589Z,41.56
2023-10-30T12:22:04.286Z,41.60
2023-10-30T12:24:31.990Z,40.96
2023-10-30T12:26:59.710Z,41.63
2023-10-30T12:29:27.258Z,41.62
2023-10-30T12:32:00.659Z,41.45
2023-10-30T12:34:28.734Z,41.74
2023-10-30T12:36:56.211Z,41.17
2023-10-30T12:39:25.750Z,41.79
2023-10-30T12:41:55.193Z,41.39
2023-10-30T12:44:25.178Z,41.88
2023-10-30T12:46:52.952Z,41.52
2023-10-30T12:49:20.452Z,41.29
2023-10-30T12:51:47.839Z,40.83
2023-10-30T12:54:15.551Z,40.64
2023-10-30T12:56:42.946Z,40.30
2023-10-30T12:59:10.329Z,40.82
2023-10-30T13:01:44.970Z,40.88
2023-10-30T13:04:27.790Z,40.98
2023-10-30T13:06:57.350Z,41.01
2023-10-30T13:09:25.237Z,41.44
2023-10-30T13:11:53.278Z,40.45
2023-10-30T13:14:21.007Z,39.86
2023-10-30T13:16:49.193Z,40.11
2023-10-30T13:19:16.669Z,40.66
2023-10-30T13:21:45.523Z,40.66
2023-10-30T13:24:13.332Z,40.87
2023-10-30T13:26:40.757Z,40.69
2023-10-30T13:29:08.632Z,40.46
2023-10-30T13:31:36.035Z,40.08
2023-10-30T13:34:04.357Z,39.99
2023-10-30T13:36:32.173Z,40.52
2023-10-30T13:38:59.701Z,40.40
2023-10-30T13:41:27.113Z,40.50
2023-10-30T13:43:55.090Z,40.75
2023-10-30T13:46:23.137Z,40.89
2023-10-30T13:48:50.653Z,40.95
2023-10-30T13:51:18.325Z,40.98
2023-10-30T13:53:45.716Z,41.16
2023-10-30T13:56:13.322Z,40.72
2023-10-30T13:58:40.982Z,40.85
2023-10-30T14:01:09.332Z,41.27
2023-10-30T14:03:37.238Z,41.13
2023-10-30T14:06:05.199Z,41.54
2023-10-30T14:08:32.723Z,41.53
2023-10-30T14:11:00.440Z,41.97
2023-10-30T14:13:27.824Z,41.95
2023-10-30T14:15:55.297Z,42.06
2023-10-30T14:18:23.134Z,42.00
2023-10-30T14:20:50.538Z,42.18
2023-10-30T14:23:18.232Z,42.18
2023-10-30T14:25:46.023Z,42.15
2023-10-30T14:28:13.411Z,42.10
2023-10-30T14:30:40.796Z,42.19
2023-10-30T14:33:12.098Z,42.40
2023-10-30T14:35:39.560Z,42.27
2023-10-30T14:38:06.928Z,42.25
2023-10-30T14:40:34.599Z,42.11
2023-10-30T14:43:02.015Z,42.45
2023-10-30T14:45:29.502Z,42.41
2023-10-30T14:47:57.280Z,42.36
2023-10-30T14:50:24.678Z,42.61
2023-10-30T14:52:52.656Z,42.31
2023-10-30T14:55:20.295Z,42.18
2023-10-30T14:57:47.765Z,42.74
2023-10-30T15:00:15.471Z,42.84
2023-10-30T15:02:44.465Z,42.86
2023-10-30T15:05:13.974Z,42.89
2023-10-30T15:07:41.504Z,43.00
2023-10-30T15:10:09.530Z,43.02
2023-10-30T15:12:37.014Z,43.07
2023-10-30T15:15:05.584Z,43.41
2023-10-30T15:17:36.532Z,43.41
2023-10-30T15:20:05.645Z,43.49
2023-10-30T15:22:33.404Z,43.40
2023-10-30T15:25:00.896Z,43.57
2023-10-30T15:27:30.204Z,43.98
2023-10-30T15:29:58.576Z,44.70
2023-10-30T15:32:26.035Z,45.51
2023-10-30T15:34:54.038Z,45.75
2023-10-30T15:37:21.785Z,46.05
2023-10-30T15:39:49.227Z,46.33
2023-10-30T15:42:16.662Z,46.45
2023-10-30T15:44:44.396Z,46.44
2023-10-30T15:47:24.282Z,46.85
2023-10-30T15:49:53.595Z,47.22
2023-10-30T15:57:25.851Z,48.24
2023-10-30T15:59:53.233Z,48.29
2023-10-30T16:02:20.911Z,48.83
2023-10-30T16:07:20.088Z,49.03
2023-10-30T16:09:49.456Z,49.28
2023-10-30T16:12:17.477Z,49.37
2023-10-30T16:14:44.990Z,49.84
2023-10-30T16:19:43.249Z,50.23
2023-10-30T16:22:10.817Z,49.98
2023-10-30T16:24:38.243Z,50.16
2023-10-30T16:27:06.434Z,50.06
2023-10-30T16:29:33.804Z,49.88
2023-10-30T16:32:01.232Z,49.39
2023-10-30T16:34:29.400Z,48.95
2023-10-30T16:36:56.861Z,48.83
2023-10-30T16:39:24.546Z,48.51
2023-10-30T16:41:52.220Z,48.69
2023-10-30T16:44:19.786Z,48.89
2023-10-30T16:46:47.241Z,49.72
2023-10-30T16:49:15.823Z,49.07
2023-10-30T16:51:43.448Z,48.69
2023-10-30T16:54:10.884Z,48.79
2023-10-30T16:56:38.670Z,48.89
2023-10-30T16:59:06.143Z,49.16
2023-10-30T17:01:33.954Z,49.32
2023-10-30T17:04:01.776Z,49.72
2023-10-30T17:06:29.462Z,49.95
2023-10-30T17:08:56.841Z,50.03
2023-10-30T17:11:24.524Z,50.40
2023-10-30T17:13:52.138Z,50.66
2023-10-30T17:16:19.686Z,51.07
2023-10-30T17:18:47.380Z,51.56
2023-10-30T17:21:15.146Z,51.70
2023-10-30T17:23:42.532Z,51.90
2023-10-30T17:26:10.209Z,51.92
2023-10-30T17:28:37.985Z,52.07
2023-10-30T17:31:05.775Z,52.10
2023-10-30T17:33:33.467Z,52.08
2023-10-30T17:36:01.419Z,52.30
2023-10-30T17:38:28.867Z,52.26
2023-10-30T17:40:56.617Z,52.54
2023-10-30T17:43:24.080Z,52.65
2023-10-30T17:45:52.170Z,52.75
2023-10-30T17:48:19.866Z,52.95
2023-10-30T17:50:47.266Z,52.93
2023-10-30T17:53:14.679Z,52.70
2023-10-30T17:55:42.449Z,52.49
2023-10-30T17:58:13.141Z,52.59
2023-10-30T18:00:40.644Z,52.63
2023-10-30T18:03:08.413Z,52.51
2023-10-30T18:05:36.128Z,52.52
2023-10-30T18:08:03.666Z,52.74
2023-10-30T18:10:31.444Z,52.92
2023-10-30T18:12:59.139Z,53.13
2023-10-30T18:15:26.550Z,53.28
2023-10-30T18:17:54.963Z,53.28
2023-10-30T18:20:22.418Z,53.55
2023-10-30T18:22:49.938Z,53.57
2023-10-30T18:25:17.892Z,53.85
2023-10-30T18:27:45.284Z,54.10
2023-10-30T18:30:13.277Z,54.22
2023-10-30T18:32:41.150Z,54.34
2023-10-30T18:35:08.806Z,54.38
2023-10-30T18:37:36.333Z,54.69
2023-10-30T18:40:04.944Z,54.69
2023-10-30T18:42:33.430Z,54.76
2023-10-30T18:45:02.543Z,54.97
2023-10-30T18:47:31.640Z,54.83
2023-10-30T18:49:59.139Z,55.01
2023-10-30T18:52:26.834Z,54.96
2023-10-30T18:54:54.623Z,55.02
2023-10-30T18:57:22.394Z,55.21
2023-10-30T18:59:50.629Z,55.26
2023-10-30T19:02:18.896Z,55.42
2023-10-30T19:04:47.835Z,55.44
2023-10-30T19:07:15.481Z,55.38
2023-10-30T19:09:43.248Z,55.58
2023-10-30T19:12:11.314Z,55.42
2023-10-30T19:14:38.754Z,55.62
2023-10-30T19:17:06.457Z,55.63
2023-10-30T19:19:33.888Z,55.45
2023-10-30T19:22:01.329Z,55.54
2023-10-30T19:24:29.034Z,55.65
2023-10-30T19:26:56.506Z,54.87
2023-10-30T19:29:23.902Z,54.44
2023-10-30T19:31:51.770Z,54.56
2023-10-30T19:34:19.286Z,54.56
2023-10-30T19:36:47.686Z,54.57
2023-10-30T19:39:16.395Z,54.57
2023-10-30T19:41:43.797Z,54.57
2023-10-30T19:44:11.630Z,54.63
2023-10-30T19:46:41.311Z,54.83
2023-10-30T19:49:09.497Z,54.84
2023-10-30T19:51:42.532Z,54.80
2023-10-30T19:54:12.488Z,54.69
2023-10-30T19:56:40.019Z,54.81
2023-10-30T19:59:07.662Z,54.82
2023-10-30T20:01:36.042Z,55.00
2023-10-30T20:04:03.962Z,54.67
2023-10-30T20:06:33.154Z,54.89
2023-10-30T20:09:00.696Z,55.12
2023-10-30T20:11:28.402Z,55.11
2023-10-30T20:13:57.272Z,55.38
2023-10-30T20:16:25.945Z,55.33
2023-10-30T20:18:53.740Z,55.37
2023-10-30T20:21:21.197Z,55.29
2023-10-30T20:23:48.597Z,55.24
2023-10-30T20:26:20.329Z,55.47
2023-10-30T20:28:47.931Z,55.50
2023-10-30T20:31:15.726Z,55.67
2023-10-30T20:33:43.485Z,56.09
2023-10-30T20:36:10.942Z,55.49
2023-10-30T20:38:38.787Z,55.48
2023-10-30T20:41:08.017Z,60.54
2023-10-30T20:43:35.460Z,56.77
2023-10-30T20:46:04.603Z,55.05
2023-10-30T20:48:31.986Z,55.12
2023-10-30T20:50:59.421Z,55.29
2023-10-30T20:53:27.177Z,54.90
2023-10-30T20:55:54.855Z,55.09
2023-10-30T20:58:22.253Z,54.91
2023-10-30T21:00:49.954Z,54.94
2023-10-30T21:03:17.877Z,54.98
2023-10-30T21:05:45.621Z,54.85
2023-10-30T21:08:13.378Z,55.12
2023-10-30T21:10:43.608Z,54.96
2023-10-30T21:13:11.016Z,54.89
2023-10-30T21:15:38.751Z,54.68
2023-10-30T21:18:06.347Z,55.22
2023-10-30T21:20:33.818Z,54.89
2023-10-30T21:23:04.288Z,54.77
2023-10-30T21:25:34.814Z,54.83
2023-10-30T21:28:02.597Z,54.47
2023-10-30T21:30:30.064Z,54.50
2023-10-30T21:32:57.561Z,54.38
2023-10-30T21:35:25.314Z,54.19
2023-10-30T21:37:52.877Z,53.98
2023-10-30T21:40:20.735Z,54.18
2023-10-30T21:42:49.443Z,54.36
2023-10-30T21:45:16.953Z,54.50
2023-10-30T21:47:44.398Z,54.50
2023-10-30T21:50:12.222Z,53.91
2023-10-30T21:52:39.891Z,53.90
2023-10-30T21:55:07.888Z,53.77
2023-10-30T21:57:35.586Z,53.87
2023-10-30T22:00:03.436Z,53.55
2023-10-30T22:02:39.285Z,53.50
2023-10-30T22:05:08.675Z,53.64
2023-10-30T22:07:36.247Z,53.90
2023-10-30T22:10:03.832Z,53.49
2023-10-30T22:12:32.169Z,53.94
2023-10-30T22:15:00.847Z,53.76
2023-10-30T22:17:28.444Z,54.13
2023-10-30T22:19:58.895Z,54.00
2023-10-30T22:22:26.481Z,53.96
2023-10-30T22:24:53.921Z,54.31
2023-10-30T22:27:21.582Z,53.94
2023-10-30T22:29:48.984Z,53.76
2023-10-30T22:32:16.357Z,53.51
2023-10-30T22:34:44.075Z,53.59
2023-10-30T22:37:11.469Z,53.52
2023-10-30T22:39:38.985Z,53.23
2023-10-30T22:42:06.899Z,53.12
2023-10-30T22:44:34.292Z,53.02
2023-10-30T22:47:01.674Z,52.49
2023-10-30T22:49:29.354Z,52.47
2023-10-30T22:51:56.768Z,52.59
2023-10-30T22:54:24.203Z,52.29
2023-10-30T22:56:51.845Z,52.13
2023-10-30T22:59:19.880Z,52.19
2023-10-30T23:01:47.318Z,51.96
2023-10-30T23:04:15.031Z,51.17
2023-10-30T23:06:42.476Z,50.36
2023-10-30T23:09:09.837Z,50.22
2023-10-30T23:11:37.539Z,49.63
2023-10-30T23:14:05.037Z,49.69
2023-10-30T23:16:32.512Z,49.28
2023-10-30T23:19:00.644Z,49.34
2023-10-30T23:21:28.095Z,49.33
2023-10-30T23:23:55.466Z,49.31
2023-10-30T23:26:23.154Z,48.85
2023-10-30T23:28:50.578Z,48.96
2023-10-30T23:31:17.993Z,49.04
2023-10-30T23:33:45.789Z,48.86
2023-10-30T23:36:13.185Z,48.66
2023-10-30T23:38:40.649Z,48.51
2023-10-30T23:41:09.184Z,48.60
2023-10-30T23:43:37.064Z,48.59
2023-10-30T23:46:04.481Z,48.61
2023-10-30T23:48:32.177Z,48.55
2023-10-30T23:50:59.611Z,48.49
2023-10-30T23:53:27.071Z,48.57
2023-10-30T23:55:54.767Z,48.18
2023-10-30T23:58:22.196Z,48.29
